New Braunfels, TX

6:36 PM CDT on September 01, 2015 (GMT -0500)
Las Brisas | | Change Station
CLOSE
Current Station
Personal Weather Station
Location: Seguin, TX
Elevation: 568 ft
Nearby Weather Stations

Elev 568 ft 29.62 °N, 98.05 °W | Updated 3 seconds ago

Mostly Cloudy
Mostly Cloudy
87.3 °F
Feels Like 91 °F
N
0.0
Wind Variable Wind from WNW
Gusts 3.0 mph

Today
High -- | Low -- °F
--% Chance of Precip.
Yesterday
High -- | Low -- °F
Precip. -- in
7:09 AM 7:54 PM
Waning Gibbous, 85% visible
Pressure 29.91 in
Visibility 10.0 miles
Clouds Scattered Clouds 5000 ft
Heat Index 91 °F
Dew Point 68 °F
Humidity 52%
Rainfall 0.00 in
Snow Depth Not available.
UV 2 out of 12
Pollen 8.50 out of 12
Air Quality Not available.
Flu Activity Not available.
METAR KBAZ 012251Z 13009KT 10SM SCT050 33/18 A2993 RMK AO2 SLP127 T03330178
Pressure 29.91 in
Visibility 10.0 miles
Clouds Scattered Clouds 5000 ft
Heat Index 91 °F
Dew Point 68 °F
Humidity 52%
Rainfall 0.00 in
Snow Depth Not available.
UV 2 out of 12
Pollen 8.50 out of 12
Air Quality Not available.
Flu Activity Not available.
METAR KBAZ 012251Z 13009KT 10SM SCT050 33/18 A2993 RMK AO2 SLP127 T03330178
Nowcast | as of 5:01 PM CDT on September 1, 2015

Through 7 PM...stray to isolated showers and thunderstorms will continue to move west and northwest across portions of south- central Texas. Most of the showers will produce brief light to moderate rainfall amounting from a trace to 1/10 of an inch. An isolated shower or storm could produce brief heavy rainfall up to 1/2 inch and isolated cloud to ground lightning.

×

10-Day Weather Forecast

×

Almanac

Astronomy

Sep. 01, 2015 Rise Set
Actual Time
Civil Twilight
Nautical Twilight
Astronomical Twilight
Moon
Length of Visible Light
Length of Day
Tomorrow will be .
, % of the Moon is Illuminated

Today's Extremes

State Highs State Lows

Community

WunderPhotos

Upload Photos

1,851,643 photos uploaded!

WunderBlogs® & News

Nearby

Air Quality

  Air Quality AQ Index Pollutant
Not available.

Snow Depth

Station Depth Elevation

Earthquake Activity

City Distance Mag. Time & Date
Minimum magnitude displayed is 2.5.

Coastal Water Temperatures

Place Temperature

Stations

Nearby Weather Stations

Station Location Temp. Windchill Dew Point Humidity Wind Precip. Elev Updated Type